首页
METAR-TAF:

METAR-TAF

机场 :

朗維尤, 得克萨斯州, 美国

纬度: 32-23-26N, 经度: 094-42-50W, 海拔: 111米

当前天气观测

该预报发布于1小时和3分钟前的19:53 UTC
风速5节,风向多变
温度 18°C
湿度 28%
气压 1028 hPa
能見度: 16.1公里
天空无云

METAR: KGGG 071953Z VRB05KT 10SM CLR 18/M01 A3037 RMK AO2 SLP285 T01831011

时间: 14:56 (20:56 UTC)

预报

该预报发布于3小时和19分钟前的17:37 UTC
预报有效从07日的 18点(UTC)到 08日的 18点(UTC)
风速9节,风向东转东南
能見度: 10公里
天空无云
从 08日的 0000点(UTC)
风速3节,风向东南
能見度: 10公里
天空无云
从 08日的 1500点(UTC)
风速7节,风向南转南东
能見度: 10公里
天空无云

TAF: KGGG 071737Z 0718/0818 11009KT P6SM SKC FM080000 14003KT P6SM SKC FM081500 15007KT P6SM SKC

超过4000个机场的气象观测和天气预报(METAR&TAF报告)。

可查询的气象台以黄色和红色小点在地图上表示。

将鼠标移到小点上方,可查看气象台名称。

然后点击查看天气观测和预报。

如需切换地图:点击带黑十字的绿色按钮放大地图;点击带横线的绿色按钮缩小地图;或者点击绿色箭头查看邻近地区的地图。


METAR-TAF: